createdAt,value
2019-03-21T00:00:32.511Z,29.40
2019-03-21T00:03:05.063Z,28.43
2019-03-21T00:05:38.484Z,29.23
2019-03-21T00:08:10.927Z,30.20
2019-03-21T00:10:43.066Z,28.30
2019-03-21T00:13:15.494Z,29.70
2019-03-21T00:15:48.095Z,29.63
2019-03-21T00:18:20.450Z,30.47
2019-03-21T00:20:55.093Z,29.93
2019-03-21T00:23:27.387Z,28.63
2019-03-21T00:25:59.833Z,29.07
2019-03-21T00:28:32.291Z,31.47
2019-03-21T00:31:04.969Z,29.90
2019-03-21T00:33:37.245Z,30.97
2019-03-21T00:36:09.593Z,30.97
2019-03-21T00:38:42.020Z,31.93
2019-03-21T00:41:14.582Z,29.10
2019-03-21T00:43:46.877Z,32.83
2019-03-21T00:46:19.557Z,31.93
2019-03-21T00:48:51.884Z,35.47
2019-03-21T00:51:24.266Z,32.73
2019-03-21T00:53:56.539Z,34.77
2019-03-21T00:56:29.027Z,36.30
2019-03-21T00:59:01.397Z,34.60
2019-03-21T01:01:33.692Z,35.43
2019-03-21T01:04:06.077Z,36.57
2019-03-21T01:06:38.452Z,36.80
2019-03-21T01:09:11.094Z,35.80
2019-03-21T01:11:43.415Z,36.83
2019-03-21T01:14:15.728Z,35.93
2019-03-21T01:16:48.083Z,37.17
2019-03-21T01:19:20.373Z,36.60
2019-03-21T01:21:52.715Z,38.53
2019-03-21T01:24:25.431Z,37.50
2019-03-21T01:26:57.750Z,37.43
2019-03-21T01:29:30.181Z,38.43
2019-03-21T01:32:02.522Z,38.53
2019-03-21T01:34:36.743Z,39.70
2019-03-21T01:37:09.024Z,38.70
2019-03-21T01:39:41.534Z,40.60
2019-03-21T01:42:13.778Z,40.60
2019-03-21T01:44:46.171Z,37.53
2019-03-21T01:47:18.489Z,40.07
2019-03-21T01:49:50.917Z,40.50
2019-03-21T01:52:23.348Z,40.77
2019-03-21T01:54:56.488Z,37.67
2019-03-21T01:57:28.929Z,40.70
2019-03-21T02:00:01.379Z,40.90
2019-03-21T02:02:33.822Z,39.20
2019-03-21T02:05:06.249Z,40.10
2019-03-21T02:07:39.112Z,39.03
2019-03-21T02:10:11.475Z,40.97
2019-03-21T02:12:43.811Z,40.23
2019-03-21T02:15:16.032Z,39.67
2019-03-21T02:17:48.496Z,38.53
2019-03-21T02:20:20.898Z,39.67
2019-03-21T02:22:53.258Z,38.10
2019-03-21T02:25:25.989Z,38.30
2019-03-21T02:27:58.405Z,39.90
2019-03-21T02:30:30.880Z,38.83
2019-03-21T02:33:04.338Z,39.47
2019-03-21T02:35:36.690Z,39.53
2019-03-21T02:38:09.164Z,38.10
2019-03-21T02:40:41.456Z,38.27
2019-03-21T02:43:13.885Z,41.93
2019-03-21T02:45:46.235Z,42.00
2019-03-21T02:48:19.122Z,39.70
2019-03-21T02:50:51.461Z,39.47
2019-03-21T02:53:23.770Z,40.10
2019-03-21T02:55:57.305Z,41.63
2019-03-21T02:58:29.717Z,38.13
2019-03-21T03:01:02.084Z,40.13
2019-03-21T03:03:34.411Z,41.00
2019-03-21T03:06:06.807Z,39.50
2019-03-21T03:08:39.419Z,39.53
2019-03-21T03:11:11.754Z,40.23
2019-03-21T03:13:44.339Z,42.10
2019-03-21T03:16:16.939Z,39.80
2019-03-21T03:18:50.332Z,42.97
2019-03-21T03:21:22.668Z,39.43
2019-03-21T03:23:55.254Z,40.57
2019-03-21T03:26:27.602Z,42.17
2019-03-21T03:28:59.973Z,39.17
2019-03-21T03:31:32.561Z,41.23
2019-03-21T03:34:04.964Z,39.50
2019-03-21T03:36:37.505Z,41.13
2019-03-21T03:39:09.892Z,39.03
2019-03-21T03:41:42.448Z,42.40
2019-03-21T03:44:17.334Z,43.83
2019-03-21T03:46:49.879Z,42.20
2019-03-21T03:49:23.764Z,39.73
2019-03-21T03:51:56.727Z,43.07
2019-03-21T03:54:29.243Z,41.77
2019-03-21T03:57:01.545Z,43.53
2019-03-21T03:59:33.871Z,42.10
2019-03-21T04:02:06.206Z,45.53
2019-03-21T04:04:38.514Z,44.63
2019-03-21T04:07:11.224Z,46.33
2019-03-21T04:09:43.873Z,43.73
2019-03-21T04:12:16.188Z,43.70
2019-03-21T04:14:48.458Z,46.13
2019-03-21T04:17:20.771Z,44.60
2019-03-21T04:19:53.177Z,46.50
2019-03-21T04:22:25.843Z,45.63
2019-03-21T04:24:58.131Z,49.97
2019-03-21T04:27:30.590Z,49.47
2019-03-21T04:30:04.101Z,48.27
2019-03-21T04:32:36.432Z,48.70
2019-03-21T04:35:11.845Z,47.47
2019-03-21T04:37:44.175Z,47.67
2019-03-21T04:40:16.619Z,49.00
2019-03-21T04:42:49.171Z,51.90
2019-03-21T04:45:21.758Z,52.30
2019-03-21T04:47:54.497Z,50.27
2019-03-21T04:50:26.877Z,51.93
2019-03-21T04:52:59.205Z,52.93
2019-03-21T04:55:31.885Z,50.77
2019-03-21T04:58:04.326Z,48.63
2019-03-21T05:00:36.860Z,49.40
2019-03-21T05:03:09.400Z,50.67
2019-03-21T05:05:41.784Z,49.53
2019-03-21T05:08:14.117Z,47.97
2019-03-21T05:10:46.618Z,49.03
2019-03-21T05:13:19.128Z,50.80
2019-03-21T05:15:51.543Z,47.53
2019-03-21T05:18:23.855Z,50.43
2019-03-21T05:20:56.623Z,48.10
2019-03-21T05:23:29.033Z,47.77
2019-03-21T05:26:03.849Z,47.93
2019-03-21T05:28:35.345Z,46.53
2019-03-21T05:31:07.654Z,48.17
2019-03-21T05:33:40.094Z,46.03
2019-03-21T05:36:12.328Z,49.23
2019-03-21T05:38:47.062Z,45.47
2019-03-21T05:41:19.359Z,47.37
2019-03-21T05:43:51.730Z,48.73
2019-03-21T05:46:27.012Z,49.93
2019-03-21T05:48:58.263Z,48.20
2019-03-21T05:51:30.568Z,49.43
2019-03-21T05:54:04.090Z,49.93
2019-03-21T05:56:36.527Z,48.20
2019-03-21T05:59:08.993Z,49.67
2019-03-21T06:01:41.448Z,47.90
2019-03-21T06:04:13.863Z,47.70
2019-03-21T06:06:46.317Z,48.73
2019-03-21T06:09:18.845Z,45.97
2019-03-21T06:11:51.321Z,45.87
2019-03-21T06:14:23.857Z,48.03
2019-03-21T06:16:56.200Z,50.47
2019-03-21T06:19:28.555Z,44.57
2019-03-21T06:22:01.275Z,47.57
2019-03-21T06:24:33.541Z,47.50
2019-03-21T06:27:14.388Z,48.00
2019-03-21T06:29:40.261Z,45.73
2019-03-21T06:32:13.143Z,47.70
2019-03-21T06:34:46.031Z,46.50
2019-03-21T06:37:18.353Z,46.73
2019-03-21T06:39:50.702Z,46.57
2019-03-21T06:42:23.365Z,48.67
2019-03-21T06:44:55.696Z,46.87
2019-03-21T06:47:27.995Z,45.60
2019-03-21T06:50:00.460Z,45.47
2019-03-21T06:52:32.758Z,45.67
2019-03-21T06:55:05.075Z,46.90
2019-03-21T06:57:37.791Z,46.10
2019-03-21T07:00:09.996Z,46.87
2019-03-21T07:02:42.554Z,45.37
2019-03-21T07:05:14.867Z,44.27
2019-03-21T07:07:47.315Z,44.37
2019-03-21T07:10:19.955Z,44.17
2019-03-21T07:12:52.726Z,46.00
2019-03-21T07:15:25.308Z,44.87
2019-03-21T07:17:57.705Z,43.90
2019-03-21T07:20:30.075Z,42.17
2019-03-21T07:23:04.639Z,44.67
2019-03-21T07:25:37.072Z,41.93
2019-03-21T07:28:09.292Z,42.97
2019-03-21T07:30:41.653Z,40.90
2019-03-21T07:33:14.179Z,42.80
2019-03-21T07:35:46.493Z,41.23
2019-03-21T07:38:18.896Z,39.80
2019-03-21T07:40:51.215Z,39.13
2019-03-21T07:43:23.471Z,36.73
2019-03-21T07:45:55.930Z,35.53
2019-03-21T07:48:28.301Z,33.10
2019-03-21T07:51:00.501Z,32.00
2019-03-21T07:53:32.902Z,30.67
2019-03-21T07:56:05.229Z,30.90
2019-03-21T07:58:37.486Z,33.10
2019-03-21T08:01:09.834Z,30.37
2019-03-21T08:03:42.134Z,34.37
2019-03-21T08:06:14.462Z,32.53
2019-03-21T08:08:46.677Z,30.87
2019-03-21T08:11:18.999Z,30.63
2019-03-21T08:13:52.535Z,30.87
2019-03-21T08:16:24.804Z,28.97
2019-03-21T08:18:57.177Z,28.60
2019-03-21T08:21:29.664Z,30.30
2019-03-21T08:24:01.894Z,29.83
2019-03-21T08:26:35.621Z,28.23
2019-03-21T08:29:08.062Z,30.90
2019-03-21T08:31:40.699Z,31.73
2019-03-21T08:34:13.058Z,32.37
2019-03-21T08:36:45.325Z,31.97
2019-03-21T08:39:17.576Z,32.70
2019-03-21T08:41:49.804Z,33.73
2019-03-21T08:44:22.160Z,34.40
2019-03-21T08:46:54.806Z,33.43
2019-03-21T08:49:27.258Z,30.97
2019-03-21T08:51:59.497Z,32.43
2019-03-21T08:54:31.817Z,33.13
2019-03-21T08:57:04.115Z,32.03
2019-03-21T08:59:36.364Z,30.70
2019-03-21T09:02:08.650Z,32.60
2019-03-21T09:04:41.018Z,29.63
2019-03-21T09:07:13.361Z,26.80
2019-03-21T09:09:45.660Z,27.00
2019-03-21T09:12:18.119Z,28.17
2019-03-21T09:14:50.386Z,25.43
2019-03-21T09:17:22.765Z,24.03
2019-03-21T09:19:55.011Z,24.63
2019-03-21T09:22:27.548Z,24.20
2019-03-21T09:24:59.963Z,25.37
2019-03-21T09:27:32.181Z,26.80
2019-03-21T09:30:05.624Z,25.63
2019-03-21T09:32:37.878Z,26.80
2019-03-21T09:35:12.371Z,27.03
2019-03-21T09:37:44.111Z,24.90
2019-03-21T09:40:16.368Z,25.77
2019-03-21T09:42:48.645Z,25.07
2019-03-21T09:45:20.978Z,24.10
2019-03-21T09:47:53.287Z,24.90
2019-03-21T09:50:25.586Z,26.10
2019-03-21T09:52:58.159Z,24.97
2019-03-21T09:55:30.490Z,26.40
2019-03-21T09:58:04.991Z,24.87
2019-03-21T10:00:37.252Z,25.57
2019-03-21T10:03:09.478Z,26.93
2019-03-21T10:05:41.734Z,27.00
2019-03-21T10:08:14.107Z,27.40
2019-03-21T10:10:46.489Z,25.90
2019-03-21T10:13:19.090Z,27.63
2019-03-21T10:15:51.598Z,28.77
2019-03-21T10:18:23.851Z,28.57
2019-03-21T10:20:56.108Z,29.70
2019-03-21T10:23:28.563Z,30.27
2019-03-21T10:26:00.899Z,28.83
2019-03-21T10:28:33.294Z,28.27
2019-03-21T10:31:05.507Z,29.63
2019-03-21T10:33:37.780Z,28.33
2019-03-21T10:36:09.981Z,28.33
2019-03-21T10:38:42.423Z,28.83
2019-03-21T10:41:14.733Z,27.43
2019-03-21T10:43:46.955Z,26.60
2019-03-21T10:46:19.297Z,27.63
2019-03-21T10:48:51.642Z,28.00
2019-03-21T10:51:23.944Z,30.23
2019-03-21T10:53:57.371Z,29.20
2019-03-21T10:56:29.638Z,29.17
2019-03-21T10:59:01.897Z,28.43
2019-03-21T11:01:34.160Z,28.13
2019-03-21T11:04:06.456Z,29.00
2019-03-21T11:06:38.736Z,29.43
2019-03-21T11:09:10.986Z,30.03
2019-03-21T11:11:43.209Z,28.13
2019-03-21T11:14:15.475Z,28.27
2019-03-21T11:16:47.710Z,30.87
2019-03-21T11:19:20.070Z,30.33
2019-03-21T11:21:52.520Z,31.03
2019-03-21T11:24:24.902Z,30.23
2019-03-21T11:26:57.234Z,30.93
2019-03-21T11:29:29.437Z,30.07
2019-03-21T11:32:01.509Z,29.90
2019-03-21T11:34:33.861Z,33.00
2019-03-21T11:37:06.343Z,32.50
2019-03-21T11:39:38.476Z,33.60
2019-03-21T11:42:10.730Z,32.33
2019-03-21T11:44:42.949Z,33.30
2019-03-21T11:47:15.203Z,33.70
2019-03-21T11:49:47.322Z,32.67
2019-03-21T11:52:19.809Z,35.77
2019-03-21T11:54:52.048Z,35.23
2019-03-21T11:57:24.332Z,35.73
2019-03-21T11:59:56.591Z,35.03
2019-03-21T12:02:28.813Z,35.73
2019-03-21T12:05:01.077Z,37.53
2019-03-21T12:07:33.390Z,36.03
2019-03-21T12:10:05.719Z,36.30
2019-03-21T12:12:37.974Z,34.57
2019-03-21T12:15:10.235Z,34.83
2019-03-21T12:17:42.451Z,33.33
2019-03-21T12:20:14.822Z,32.83
2019-03-21T12:22:47.461Z,33.37
2019-03-21T12:25:19.858Z,33.73
2019-03-21T12:27:52.098Z,33.03
2019-03-21T12:30:25.756Z,33.57
2019-03-21T12:32:58.023Z,35.83
2019-03-21T12:35:30.492Z,33.30
2019-03-21T12:38:02.894Z,34.07
2019-03-21T12:40:35.332Z,32.97
2019-03-21T12:43:07.680Z,33.13
2019-03-21T12:45:39.989Z,31.87
2019-03-21T12:48:12.264Z,33.73
2019-03-21T12:50:45.492Z,33.00
2019-03-21T12:53:17.868Z,33.97
2019-03-21T12:55:50.094Z,33.60
2019-03-21T12:58:22.349Z,33.67
2019-03-21T13:00:54.841Z,32.17
2019-03-21T13:03:27.092Z,33.63
2019-03-21T13:05:59.329Z,31.97
2019-03-21T13:08:34.010Z,33.37
2019-03-21T13:11:06.295Z,30.37
2019-03-21T13:13:38.622Z,32.50
2019-03-21T13:16:11.218Z,31.07
2019-03-21T13:18:43.590Z,31.50
2019-03-21T13:21:15.822Z,34.43
2019-03-21T13:23:48.255Z,32.93
2019-03-21T13:26:20.621Z,32.47
2019-03-21T13:28:52.796Z,29.87
2019-03-21T13:31:25.145Z,29.83
2019-03-21T13:33:57.384Z,29.73
2019-03-21T13:36:29.699Z,30.47
2019-03-21T13:39:02.191Z,31.47
2019-03-21T13:41:35.201Z,33.13
2019-03-21T13:44:07.456Z,31.13
2019-03-21T13:46:39.796Z,31.40
2019-03-21T13:49:12.078Z,31.33
2019-03-21T13:51:44.403Z,30.77
2019-03-21T13:54:16.700Z,30.67
2019-03-21T13:56:49.012Z,31.63
2019-03-21T13:59:21.286Z,32.07
2019-03-21T14:01:53.808Z,32.10
2019-03-21T14:04:26.181Z,33.43
2019-03-21T14:06:58.528Z,33.60
2019-03-21T14:09:32.925Z,30.83
2019-03-21T14:12:05.227Z,32.27
2019-03-21T14:14:37.497Z,30.03
2019-03-21T14:17:21.511Z,32.53
2019-03-21T14:19:45.175Z,29.13
2019-03-21T14:22:17.444Z,30.23
2019-03-21T14:24:49.670Z,30.07
2019-03-21T14:27:22.147Z,29.40
2019-03-21T14:30:01.361Z,27.93
2019-03-21T14:32:29.075Z,26.87
2019-03-21T14:35:01.475Z,25.53
2019-03-21T14:37:33.817Z,27.50
2019-03-21T14:40:06.685Z,25.77
2019-03-21T14:42:39.370Z,27.17
2019-03-21T14:45:11.767Z,25.00
2019-03-21T14:47:44.210Z,26.23
2019-03-21T14:50:16.706Z,26.10
2019-03-21T14:52:49.193Z,25.03
2019-03-21T14:55:21.555Z,27.97
2019-03-21T14:57:54.026Z,26.50
2019-03-21T15:00:26.403Z,28.30
2019-03-21T15:02:58.773Z,25.63
2019-03-21T15:05:31.239Z,25.97
2019-03-21T15:08:03.672Z,25.50
2019-03-21T15:10:36.063Z,24.63
2019-03-21T15:13:08.302Z,24.67
2019-03-21T15:15:40.912Z,22.67
2019-03-21T15:18:13.136Z,23.70
2019-03-21T15:20:45.503Z,21.43
2019-03-21T15:23:18.082Z,22.47
2019-03-21T15:25:50.363Z,22.97
2019-03-21T15:28:22.797Z,21.87
2019-03-21T15:30:55.177Z,22.73
2019-03-21T15:33:27.620Z,22.07
2019-03-21T15:35:59.985Z,22.87
2019-03-21T15:38:32.430Z,20.73
2019-03-21T15:41:05.090Z,19.53
2019-03-21T15:43:37.466Z,21.13
2019-03-21T15:46:10.187Z,21.03
2019-03-21T15:48:42.548Z,19.97
2019-03-21T15:51:15.989Z,22.90
2019-03-21T15:53:55.922Z,22.53
2019-03-21T15:56:22.782Z,23.03
2019-03-21T15:58:55.146Z,21.57
2019-03-21T16:01:27.455Z,23.23
2019-03-21T16:03:59.721Z,25.33
2019-03-21T16:06:32.249Z,24.67
2019-03-21T16:09:04.776Z,24.23
2019-03-21T16:11:37.235Z,23.63
2019-03-21T16:14:09.552Z,23.83
2019-03-21T16:16:41.842Z,25.17
2019-03-21T16:19:14.159Z,23.43
2019-03-21T16:21:46.415Z,24.10
2019-03-21T16:24:18.670Z,25.30
2019-03-21T16:26:50.904Z,26.83
2019-03-21T16:29:23.607Z,26.03
2019-03-21T16:31:56.412Z,27.03
2019-03-21T16:34:28.713Z,25.90
2019-03-21T16:37:01.617Z,26.40
2019-03-21T16:39:34.014Z,25.30
2019-03-21T16:42:06.274Z,27.20
2019-03-21T16:44:38.804Z,28.60
2019-03-21T16:47:11.449Z,26.37
2019-03-21T16:49:43.685Z,27.50
2019-03-21T16:52:16.130Z,27.73
2019-03-21T16:54:48.479Z,28.70
2019-03-21T16:57:20.952Z,28.70
2019-03-21T16:59:55.346Z,29.43
2019-03-21T17:02:28.493Z,29.07
2019-03-21T17:05:00.851Z,29.83
2019-03-21T17:07:33.218Z,28.90
2019-03-21T17:10:05.683Z,27.40
2019-03-21T17:12:40.627Z,28.80
2019-03-21T17:15:13.647Z,28.13
2019-03-21T17:17:46.381Z,28.67
2019-03-21T17:20:18.705Z,29.57
2019-03-21T17:22:52.719Z,29.83
2019-03-21T17:25:25.152Z,30.30
2019-03-21T17:27:57.505Z,31.30
2019-03-21T17:30:31.883Z,31.93
2019-03-21T17:33:04.191Z,31.80
2019-03-21T17:35:36.484Z,30.23
2019-03-21T17:38:08.978Z,31.23
2019-03-21T17:40:43.416Z,32.60
2019-03-21T17:43:15.745Z,33.37
2019-03-21T17:45:48.098Z,30.60
2019-03-21T17:48:20.506Z,29.73
2019-03-21T17:50:52.844Z,31.53
2019-03-21T17:53:25.178Z,29.60
2019-03-21T17:55:57.452Z,30.10
2019-03-21T17:58:29.678Z,32.13
2019-03-21T18:01:01.932Z,32.63
2019-03-21T18:03:34.269Z,31.60
2019-03-21T18:06:06.532Z,33.10
2019-03-21T18:08:38.803Z,33.67
2019-03-21T18:11:11.074Z,31.33
2019-03-21T18:13:43.406Z,33.50
2019-03-21T18:16:18.492Z,34.03
2019-03-21T18:18:49.830Z,35.03
2019-03-21T18:21:22.419Z,33.87
2019-03-21T18:23:55.437Z,32.57
2019-03-21T18:26:28.628Z,32.03
2019-03-21T18:29:01.065Z,32.40
2019-03-21T18:31:33.308Z,31.63
2019-03-21T18:34:05.667Z,33.53
2019-03-21T18:36:38.012Z,33.50
2019-03-21T18:39:10.489Z,31.97
2019-03-21T18:41:42.831Z,31.50
2019-03-21T18:44:15.304Z,31.37
2019-03-21T18:46:47.608Z,33.97
2019-03-21T18:49:19.939Z,34.40
2019-03-21T18:51:53.725Z,31.87
2019-03-21T18:54:26.083Z,33.37
2019-03-21T18:56:58.440Z,33.67
2019-03-21T18:59:31.928Z,34.17
2019-03-21T19:02:04.218Z,37.07
2019-03-21T19:04:36.491Z,33.77
2019-03-21T19:07:08.971Z,35.57
2019-03-21T19:09:43.925Z,34.83
2019-03-21T19:12:25.060Z,32.80
2019-03-21T19:15:03.322Z,34.80
2019-03-21T19:17:38.369Z,32.77
2019-03-21T19:20:10.783Z,34.53
2019-03-21T19:22:43.221Z,36.93
2019-03-21T19:25:19.063Z,32.83
2019-03-21T19:27:50.105Z,33.70
2019-03-21T19:30:22.725Z,33.53
2019-03-21T19:32:55.229Z,38.10
2019-03-21T19:35:27.708Z,34.77
2019-03-21T19:38:00.324Z,34.17
2019-03-21T19:40:33.404Z,32.83
2019-03-21T19:43:07.841Z,38.37
2019-03-21T19:45:42.321Z,36.83
2019-03-21T19:48:14.669Z,35.30
2019-03-21T19:50:47.250Z,37.17
2019-03-21T19:53:19.464Z,38.30
2019-03-21T19:55:51.810Z,34.50
2019-03-21T19:58:24.162Z,34.57
2019-03-21T20:00:56.316Z,34.90
2019-03-21T20:03:28.549Z,36.60
2019-03-21T20:06:00.829Z,38.70
2019-03-21T20:08:36.136Z,38.47
2019-03-21T20:11:08.515Z,39.73
2019-03-21T20:13:41.178Z,39.40
2019-03-21T20:16:13.480Z,42.67
2019-03-21T20:18:45.823Z,41.93
2019-03-21T20:21:18.124Z,41.93
2019-03-21T20:23:50.437Z,40.30
2019-03-21T20:26:22.972Z,40.17
2019-03-21T20:28:55.280Z,39.90
2019-03-21T20:31:27.666Z,37.57
2019-03-21T20:34:00.037Z,40.80
2019-03-21T20:36:32.541Z,40.63
2019-03-21T20:39:04.888Z,36.43
2019-03-21T20:41:37.440Z,36.90
2019-03-21T20:44:15.102Z,38.70
2019-03-21T20:46:43.753Z,38.20
2019-03-21T20:49:16.157Z,38.17
2019-03-21T20:51:48.438Z,37.97
2019-03-21T20:54:20.707Z,39.27
2019-03-21T20:56:52.827Z,37.83
2019-03-21T20:59:25.017Z,41.70
2019-03-21T21:02:02.551Z,38.40
2019-03-21T21:04:32.405Z,36.73
2019-03-21T21:07:04.646Z,40.07
2019-03-21T21:09:36.969Z,40.47
2019-03-21T21:12:09.257Z,38.97
2019-03-21T21:14:41.615Z,37.87
2019-03-21T21:17:14.054Z,40.77
2019-03-21T21:19:46.371Z,41.70
2019-03-21T21:22:18.724Z,37.80
2019-03-21T21:24:50.959Z,37.77
2019-03-21T21:27:25.216Z,40.83
2019-03-21T21:29:57.447Z,43.80
2019-03-21T21:32:29.676Z,40.40
2019-03-21T21:35:01.925Z,40.90
2019-03-21T21:37:34.254Z,44.90
2019-03-21T21:40:06.514Z,42.30
2019-03-21T21:42:39.417Z,38.97
2019-03-21T21:45:11.672Z,41.50
2019-03-21T21:47:44.024Z,39.53
2019-03-21T21:50:16.278Z,39.67
2019-03-21T21:52:48.669Z,40.53
2019-03-21T21:55:20.916Z,40.17
2019-03-21T21:57:53.212Z,44.50
2019-03-21T22:00:25.612Z,41.83
2019-03-21T22:02:57.829Z,45.43
2019-03-21T22:05:30.083Z,41.40
2019-03-21T22:08:02.371Z,43.67
2019-03-21T22:10:35.730Z,42.87
2019-03-21T22:13:08.049Z,43.20
2019-03-21T22:15:40.401Z,44.43
2019-03-21T22:18:12.755Z,44.13
2019-03-21T22:20:45.075Z,40.27
2019-03-21T22:23:17.399Z,42.83
2019-03-21T22:25:50.773Z,43.83
2019-03-21T22:28:23.342Z,43.07
2019-03-21T22:30:55.578Z,43.53
2019-03-21T22:33:28.917Z,42.30
2019-03-21T22:36:01.107Z,42.83
2019-03-21T22:38:33.459Z,40.30
2019-03-21T22:41:05.823Z,44.67
2019-03-21T22:43:38.141Z,44.03
2019-03-21T22:46:10.364Z,41.97
2019-03-21T22:48:42.634Z,41.80
2019-03-21T22:51:14.858Z,43.07
2019-03-21T22:53:47.094Z,43.37
2019-03-21T22:56:19.413Z,42.40
2019-03-21T22:58:51.680Z,43.93
2019-03-21T23:01:23.931Z,40.30
2019-03-21T23:03:56.354Z,45.77
2019-03-21T23:06:28.591Z,44.17
2019-03-21T23:09:01.119Z,39.93
2019-03-21T23:11:35.010Z,42.03
2019-03-21T23:14:07.312Z,41.73
2019-03-21T23:16:40.497Z,43.83
2019-03-21T23:19:12.740Z,43.83
2019-03-21T23:21:45.063Z,43.53
2019-03-21T23:24:17.307Z,44.10
2019-03-21T23:26:53.156Z,47.17
2019-03-21T23:29:26.106Z,48.03
2019-03-21T23:31:58.827Z,49.93
2019-03-21T23:34:31.357Z,49.50
2019-03-21T23:37:03.954Z,47.33
2019-03-21T23:39:36.313Z,45.70
2019-03-21T23:42:08.628Z,47.97
2019-03-21T23:44:40.836Z,44.37
2019-03-21T23:47:13.044Z,48.10
2019-03-21T23:49:45.277Z,46.77
2019-03-21T23:52:17.523Z,46.93
2019-03-21T23:54:49.873Z,46.10
2019-03-21T23:57:22.081Z,46.07
2019-03-21T23:59:54.553Z,47.07
